createdAt,value
2023-02-11T00:02:11.885Z,-0.70
2023-02-11T00:04:44.593Z,-0.68
2023-02-11T00:07:16.485Z,-0.71
2023-02-11T00:09:49.480Z,-0.64
2023-02-11T00:12:21.691Z,-0.60
2023-02-11T00:14:54.400Z,-0.52
2023-02-11T00:17:26.350Z,-0.39
2023-02-11T00:19:59.447Z,-0.29
2023-02-11T00:22:31.389Z,-0.30
2023-02-11T00:25:05.129Z,-0.20
2023-02-11T00:27:38.744Z,-0.12
2023-02-11T00:30:11.770Z,-0.26
2023-02-11T00:32:45.110Z,-0.35
2023-02-11T00:35:17.210Z,-0.48
2023-02-11T00:37:49.934Z,-0.54
2023-02-11T00:40:22.568Z,-0.23
2023-02-11T00:42:54.492Z,-0.11
2023-02-11T00:45:31.065Z,-0.00
2023-02-11T00:48:03.796Z,-0.08
2023-02-11T00:50:35.747Z,-0.09
2023-02-11T00:53:11.453Z,-0.18
2023-02-11T00:55:43.999Z,-0.23
2023-02-11T00:58:16.697Z,-0.14
2023-02-11T01:00:49.361Z,-0.10
2023-02-11T01:03:22.359Z,-0.33
2023-02-11T01:05:54.987Z,-0.30
2023-02-11T01:08:27.876Z,-0.11
2023-02-11T01:11:08.225Z,-0.20
2023-02-11T01:13:40.539Z,-0.26
2023-02-11T01:16:14.108Z,-0.46
2023-02-11T01:18:47.145Z,-0.64
2023-02-11T01:21:23.496Z,-0.83
2023-02-11T01:23:56.753Z,-0.91
2023-02-11T01:26:29.154Z,-1.01
2023-02-11T01:29:03.955Z,-1.02
2023-02-11T01:31:36.795Z,-1.08
2023-02-11T01:34:09.290Z,-1.09
2023-02-11T01:36:42.946Z,-1.14
2023-02-11T01:39:15.658Z,-1.25
2023-02-11T01:42:09.996Z,-1.49
2023-02-11T01:44:42.339Z,-1.46
2023-02-11T01:47:15.118Z,-1.42
2023-02-11T01:49:57.413Z,-1.30
2023-02-11T01:52:36.107Z,-1.19
2023-02-11T01:55:31.414Z,-1.23
2023-02-11T01:58:05.859Z,-1.11
2023-02-11T02:00:40.341Z,-0.92
2023-02-11T02:03:22.881Z,-0.79
2023-02-11T02:06:16.905Z,-0.85
2023-02-11T02:09:04.706Z,-0.85
2023-02-11T02:11:36.636Z,-0.82
2023-02-11T02:14:10.171Z,-0.89
2023-02-11T02:16:42.599Z,-0.80
2023-02-11T02:19:46.140Z,-0.89
2023-02-11T02:23:38.477Z,-0.96
2023-02-11T02:26:18.058Z,-0.94
2023-02-11T02:33:22.809Z,-0.94
2023-02-11T02:35:55.820Z,-1.10
2023-02-11T02:39:06.777Z,-1.18
2023-02-11T02:41:39.972Z,-1.10
2023-02-11T02:44:12.150Z,-1.06
2023-02-11T02:46:44.920Z,-1.08
2023-02-11T02:49:17.717Z,-1.21
2023-02-11T02:52:08.488Z,-1.29
2023-02-11T02:55:09.640Z,-1.36
2023-02-11T02:58:25.094Z,-1.28
2023-02-11T03:01:45.754Z,-1.28
2023-02-11T03:04:53.460Z,-1.23
2023-02-11T03:07:42.197Z,-1.27
2023-02-11T03:10:21.608Z,-1.36
2023-02-11T03:12:56.369Z,-1.28
2023-02-11T03:15:32.660Z,-1.24
2023-02-11T03:18:10.319Z,-1.12
2023-02-11T03:20:47.493Z,-1.11
2023-02-11T03:23:29.013Z,-0.97
2023-02-11T03:26:41.902Z,-0.78
2023-02-11T03:29:36.230Z,-0.76
2023-02-11T03:32:34.969Z,-0.85
2023-02-11T03:35:16.142Z,-0.85
2023-02-11T03:38:07.080Z,-0.79
2023-02-11T03:40:42.863Z,-0.77
2023-02-11T03:43:30.334Z,-0.74
2023-02-11T03:46:04.292Z,-0.81
2023-02-11T03:48:44.699Z,-1.00
2023-02-11T03:51:18.034Z,-1.16
2023-02-11T03:53:53.100Z,-1.23
2023-02-11T03:56:31.520Z,-1.32
2023-02-11T03:59:21.824Z,-1.04
2023-02-11T04:04:48.338Z,-1.08
2023-02-11T04:07:20.736Z,-0.96
2023-02-11T04:09:53.396Z,-0.87
2023-02-11T04:12:26.073Z,-0.81
2023-02-11T04:14:57.976Z,-0.85
2023-02-11T04:17:30.830Z,-0.80
2023-02-11T04:20:02.820Z,-0.84
2023-02-11T04:22:57.321Z,-0.88
2023-02-11T04:25:52.071Z,-0.81
2023-02-11T04:28:24.559Z,-0.75
2023-02-11T04:30:57.508Z,-0.99
2023-02-11T04:33:30.232Z,-1.14
2023-02-11T04:36:02.121Z,-1.17
2023-02-11T04:38:35.492Z,-1.27
2023-02-11T04:41:07.449Z,-1.06
2023-02-11T04:43:40.330Z,-0.86
2023-02-11T04:46:12.892Z,-0.78
2023-02-11T04:48:45.321Z,-0.76
2023-02-11T04:51:17.357Z,-0.90
2023-02-11T04:53:50.126Z,-0.74
2023-02-11T04:56:23.494Z,-0.81
2023-02-11T04:58:55.874Z,-0.76
2023-02-11T05:01:28.330Z,-0.88
2023-02-11T05:04:00.456Z,-0.89
2023-02-11T05:06:33.231Z,-0.91
2023-02-11T05:09:05.209Z,-0.92
2023-02-11T05:11:39.818Z,-0.81
2023-02-11T05:14:11.706Z,-0.82
2023-02-11T05:16:44.502Z,-0.97
2023-02-11T05:19:17.425Z,-1.17
2023-02-11T05:22:01.624Z,-1.25
2023-02-11T05:24:35.363Z,-1.30
2023-02-11T05:27:08.570Z,-1.25
2023-02-11T05:29:40.999Z,-1.37
2023-02-11T05:32:13.367Z,-1.29
2023-02-11T05:34:45.335Z,-1.06
2023-02-11T05:37:20.819Z,-0.54
2023-02-11T05:39:53.205Z,-1.11
2023-02-11T05:42:26.382Z,-1.49
2023-02-11T05:44:58.383Z,-1.60
2023-02-11T05:47:31.245Z,-1.70
2023-02-11T05:50:06.950Z,-1.78
2023-02-11T05:52:39.312Z,-1.76
2023-02-11T05:55:12.153Z,-1.80
2023-02-11T05:57:45.022Z,-1.80
2023-02-11T06:00:18.274Z,-1.92
2023-02-11T06:03:12.546Z,-1.91
2023-02-11T06:08:39.694Z,-1.45
2023-02-11T06:14:04.776Z,-1.02
2023-02-11T06:16:37.576Z,-1.10
2023-02-11T06:19:10.010Z,-1.03
2023-02-11T06:21:44.294Z,-0.90
2023-02-11T06:24:24.659Z,-0.76
2023-02-11T06:27:09.251Z,-0.75
2023-02-11T06:29:42.056Z,-0.30
2023-02-11T06:32:36.886Z,-0.25
2023-02-11T06:35:09.488Z,-0.37
2023-02-11T06:37:43.520Z,-0.29
2023-02-11T06:40:16.638Z,-0.38
2023-02-11T06:42:48.618Z,-0.39
2023-02-11T06:45:21.227Z,-0.48
2023-02-11T06:47:53.371Z,-0.77
2023-02-11T06:50:28.692Z,-0.89
2023-02-11T06:53:01.275Z,-0.71
2023-02-11T06:55:35.925Z,-0.84
2023-02-11T06:58:08.594Z,-0.90
2023-02-11T07:00:41.672Z,-1.01
2023-02-11T07:03:13.737Z,-0.96
2023-02-11T07:05:46.960Z,-0.98
2023-02-11T07:08:38.533Z,-0.98
2023-02-11T07:11:24.663Z,-0.83
2023-02-11T07:14:02.229Z,-0.81
2023-02-11T07:16:35.869Z,-0.76
2023-02-11T07:19:08.609Z,-0.62
2023-02-11T07:21:40.934Z,-0.47
2023-02-11T07:24:13.876Z,-0.27
2023-02-11T07:26:47.451Z,-0.13
2023-02-11T07:29:19.873Z,0.12
2023-02-11T07:31:52.248Z,0.28
2023-02-11T07:34:24.720Z,0.35
2023-02-11T07:36:59.181Z,0.56
2023-02-11T07:39:31.509Z,0.63
2023-02-11T07:42:04.716Z,0.56
2023-02-11T07:47:30.186Z,0.58
2023-02-11T07:50:03.048Z,0.54
2023-02-11T07:52:38.877Z,0.60
2023-02-11T07:55:11.554Z,0.66
2023-02-11T07:57:44.374Z,0.81
2023-02-11T08:00:19.383Z,0.86
2023-02-11T08:02:54.479Z,0.97
2023-02-11T08:05:26.413Z,1.17
2023-02-11T08:07:59.170Z,1.46
2023-02-11T08:10:32.880Z,1.39
2023-02-11T08:13:05.202Z,1.62
2023-02-11T08:15:37.538Z,1.61
2023-02-11T08:18:09.414Z,1.73
2023-02-11T08:20:42.501Z,1.70
2023-02-11T08:23:14.430Z,1.53
2023-02-11T08:25:47.207Z,4.26
2023-02-11T08:28:19.594Z,3.05
2023-02-11T08:30:51.893Z,2.51
2023-02-11T08:33:24.899Z,2.52
2023-02-11T08:35:57.605Z,2.34
2023-02-11T08:38:30.875Z,2.49
2023-02-11T08:41:03.648Z,2.64
2023-02-11T08:43:37.326Z,2.61
2023-02-11T08:46:13.908Z,3.07
2023-02-11T08:48:47.499Z,4.09
2023-02-11T08:51:31.934Z,4.70
2023-02-11T08:54:04.366Z,4.85
2023-02-11T08:56:39.311Z,5.37
2023-02-11T08:59:15.084Z,6.15
2023-02-11T09:01:48.090Z,7.47
2023-02-11T09:04:20.315Z,8.57
2023-02-11T09:06:53.524Z,9.13
2023-02-11T09:09:28.760Z,7.03
2023-02-11T09:12:01.450Z,10.59
2023-02-11T09:14:35.441Z,9.96
2023-02-11T09:17:07.440Z,10.46
2023-02-11T09:22:33.633Z,12.35
2023-02-11T09:25:07.216Z,9.52
2023-02-11T09:27:40.192Z,8.96
2023-02-11T09:30:12.916Z,8.21
2023-02-11T09:32:45.760Z,8.43
2023-02-11T09:35:18.314Z,8.23
2023-02-11T09:37:51.721Z,8.46
2023-02-11T09:40:24.240Z,7.94
2023-02-11T09:43:44.313Z,8.30
2023-02-11T09:46:18.167Z,8.31
2023-02-11T09:48:57.914Z,8.83
2023-02-11T09:51:36.094Z,8.65
2023-02-11T09:54:20.160Z,9.49
2023-02-11T09:56:52.135Z,9.28
2023-02-11T09:59:24.500Z,9.68
2023-02-11T10:02:05.157Z,10.97
2023-02-11T10:05:12.779Z,12.28
2023-02-11T10:08:22.757Z,14.12
2023-02-11T10:11:05.885Z,14.51
2023-02-11T10:13:53.279Z,12.40
2023-02-11T10:17:14.689Z,9.19
2023-02-11T10:19:57.734Z,8.45
2023-02-11T10:22:50.398Z,8.79
2023-02-11T10:25:54.488Z,9.68
2023-02-11T10:28:33.275Z,10.06
2023-02-11T10:31:15.893Z,9.19
2023-02-11T10:34:13.079Z,9.60
2023-02-11T10:36:45.777Z,9.31
2023-02-11T10:39:24.897Z,9.87
2023-02-11T10:42:06.721Z,9.56
2023-02-11T10:44:46.663Z,9.15
2023-02-11T10:47:24.976Z,8.93
2023-02-11T10:50:03.809Z,9.23
2023-02-11T10:52:36.186Z,9.67
2023-02-11T10:55:22.591Z,9.31
2023-02-11T10:58:01.509Z,10.25
2023-02-11T11:00:37.339Z,9.83
2023-02-11T11:03:23.392Z,9.61
2023-02-11T11:06:05.644Z,9.39
2023-02-11T11:08:44.274Z,9.93
2023-02-11T11:11:26.588Z,9.60
2023-02-11T11:14:03.747Z,8.97
2023-02-11T11:16:37.723Z,9.52
2023-02-11T11:19:09.969Z,9.42
2023-02-11T11:21:56.432Z,10.00
2023-02-11T11:24:45.005Z,9.96
2023-02-11T11:27:25.144Z,10.16
2023-02-11T11:29:57.806Z,9.85
2023-02-11T11:32:33.666Z,10.11
2023-02-11T11:35:25.470Z,10.03
2023-02-11T11:38:02.328Z,10.69
2023-02-11T11:40:35.994Z,10.18
2023-02-11T11:43:14.562Z,10.73
2023-02-11T11:45:56.364Z,9.92
2023-02-11T11:48:47.526Z,10.50
2023-02-11T11:51:19.902Z,11.69
2023-02-11T11:54:18.395Z,10.92
2023-02-11T11:57:18.965Z,10.90
2023-02-11T11:59:51.300Z,10.14
2023-02-11T12:03:11.363Z,10.32
2023-02-11T12:06:09.648Z,10.09
2023-02-11T12:09:25.875Z,9.73
2023-02-11T12:12:27.540Z,9.86
2023-02-11T12:15:20.503Z,9.94
2023-02-11T12:18:14.606Z,9.97
2023-02-11T12:21:13.288Z,10.07
2023-02-11T12:24:17.421Z,10.14
2023-02-11T12:27:36.651Z,10.68
2023-02-11T12:30:33.865Z,10.09
2023-02-11T12:33:36.160Z,10.59
2023-02-11T12:36:21.707Z,11.13
2023-02-11T12:39:37.424Z,11.50
2023-02-11T12:43:02.533Z,12.07
2023-02-11T12:45:59.164Z,11.73
2023-02-11T12:49:02.182Z,11.20
2023-02-11T12:52:18.874Z,10.45
2023-02-11T12:55:23.146Z,10.50
2023-02-11T12:57:59.081Z,10.68
2023-02-11T13:00:48.785Z,10.44
2023-02-11T13:03:47.099Z,10.41
2023-02-11T13:06:28.309Z,10.20
2023-02-11T13:09:05.057Z,10.20
2023-02-11T13:11:45.022Z,9.86
2023-02-11T13:14:32.718Z,10.08
2023-02-11T13:17:18.714Z,9.90
2023-02-11T13:20:01.608Z,10.00
2023-02-11T13:22:44.646Z,10.14
2023-02-11T13:25:23.436Z,10.31
2023-02-11T13:28:45.908Z,10.08
2023-02-11T13:31:20.319Z,9.72
2023-02-11T13:33:53.287Z,9.89
2023-02-11T13:36:28.696Z,9.96
2023-02-11T13:39:06.906Z,10.07
2023-02-11T13:41:41.324Z,9.96
2023-02-11T13:44:22.576Z,10.03
2023-02-11T13:47:03.269Z,10.03
2023-02-11T13:49:51.175Z,10.23
2023-02-11T13:52:31.216Z,10.18
2023-02-11T13:55:24.632Z,10.08
2023-02-11T13:58:08.802Z,9.70
2023-02-11T14:00:52.292Z,9.44
2023-02-11T14:03:52.606Z,9.37
2023-02-11T14:06:48.147Z,9.37
2023-02-11T14:09:23.436Z,9.46
2023-02-11T14:12:31.892Z,9.49
2023-02-11T14:15:07.943Z,9.54
2023-02-11T14:17:40.424Z,9.53
2023-02-11T14:20:39.786Z,9.73
2023-02-11T14:23:27.563Z,9.47
2023-02-11T14:26:21.505Z,9.78
2023-02-11T14:29:40.992Z,9.66
2023-02-11T14:32:53.119Z,9.51
2023-02-11T14:36:00.993Z,9.67
2023-02-11T14:39:09.989Z,9.57
2023-02-11T14:41:45.348Z,9.52
2023-02-11T14:44:28.311Z,9.55
2023-02-11T14:47:01.017Z,9.47
2023-02-11T14:49:39.854Z,9.48
2023-02-11T14:52:31.614Z,9.32
2023-02-11T14:55:18.847Z,9.27
2023-02-11T14:58:19.092Z,9.37
2023-02-11T15:01:01.427Z,9.38
2023-02-11T15:03:40.370Z,9.43
2023-02-11T15:06:25.482Z,9.44
2023-02-11T15:09:41.729Z,9.48
2023-02-11T15:12:26.821Z,9.40
2023-02-11T15:15:01.041Z,9.40
2023-02-11T15:17:33.106Z,9.33
2023-02-11T15:20:06.881Z,9.31
2023-02-11T15:22:39.356Z,9.35
2023-02-11T15:25:17.583Z,9.26
2023-02-11T15:27:53.934Z,9.36
2023-02-11T15:30:31.377Z,9.23
2023-02-11T15:33:06.781Z,9.15
2023-02-11T15:35:41.391Z,9.09
2023-02-11T15:38:14.215Z,9.02
2023-02-11T15:41:38.739Z,8.99
2023-02-11T15:44:32.329Z,9.04
2023-02-11T15:47:11.850Z,8.98
2023-02-11T15:49:45.837Z,9.06
2023-02-11T15:52:26.084Z,9.03
2023-02-11T15:55:01.668Z,8.93
2023-02-11T15:57:34.748Z,8.80
2023-02-11T16:00:08.188Z,8.67
2023-02-11T16:02:46.704Z,8.66
2023-02-11T16:05:37.137Z,8.63
2023-02-11T16:08:42.084Z,8.62
2023-02-11T16:11:35.122Z,8.58
2023-02-11T16:14:37.504Z,8.57
2023-02-11T16:17:12.537Z,8.45
2023-02-11T16:19:48.159Z,8.37
2023-02-11T16:22:26.287Z,8.27
2023-02-11T16:25:00.274Z,8.19
2023-02-11T16:27:42.088Z,8.12
2023-02-11T16:30:34.590Z,8.06
2023-02-11T16:33:06.585Z,7.97
2023-02-11T16:35:39.017Z,7.87
2023-02-11T16:38:10.910Z,7.73
2023-02-11T16:40:44.875Z,7.63
2023-02-11T16:43:20.663Z,7.48
2023-02-11T16:45:53.285Z,7.35
2023-02-11T16:48:25.551Z,7.20
2023-02-11T16:50:58.193Z,7.10
2023-02-11T16:53:30.662Z,6.89
2023-02-11T16:56:03.038Z,6.67
2023-02-11T16:58:35.044Z,6.54
2023-02-11T17:01:07.905Z,6.36
2023-02-11T17:03:40.755Z,6.40
2023-02-11T17:06:14.283Z,6.34
2023-02-11T17:08:46.288Z,6.37
2023-02-11T17:11:20.143Z,6.29
2023-02-11T17:13:52.468Z,6.12
2023-02-11T17:16:25.464Z,5.99
2023-02-11T17:18:57.413Z,5.88
2023-02-11T17:21:31.869Z,5.66
2023-02-11T17:24:04.385Z,5.52
2023-02-11T17:26:38.223Z,5.38
2023-02-11T17:29:16.671Z,5.29
2023-02-11T17:31:49.651Z,5.20
2023-02-11T17:34:22.921Z,5.08
2023-02-11T17:36:55.428Z,4.90
2023-02-11T17:39:27.935Z,4.80
2023-02-11T17:42:00.661Z,4.59
2023-02-11T17:44:34.006Z,4.56
2023-02-11T17:47:06.327Z,4.47
2023-02-11T17:49:39.029Z,4.28
2023-02-11T17:52:11.797Z,4.19
2023-02-11T17:54:44.213Z,4.37
2023-02-11T17:57:16.595Z,4.32
2023-02-11T17:59:48.573Z,4.33
2023-02-11T18:02:21.070Z,4.28
2023-02-11T18:04:55.433Z,4.24
2023-02-11T18:07:27.826Z,4.19
2023-02-11T18:09:59.776Z,4.14
2023-02-11T18:12:32.124Z,4.10
2023-02-11T18:15:04.507Z,4.05
2023-02-11T18:17:36.887Z,4.16
2023-02-11T18:20:09.896Z,4.05
2023-02-11T18:22:44.556Z,3.98
2023-02-11T18:25:17.414Z,3.89
2023-02-11T18:27:49.745Z,3.93
2023-02-11T18:30:22.367Z,3.88
2023-02-11T18:32:57.875Z,3.85
2023-02-11T18:35:29.853Z,3.83
2023-02-11T18:38:02.300Z,3.77
2023-02-11T18:40:34.666Z,3.74
2023-02-11T18:43:07.320Z,3.71
2023-02-11T18:45:44.270Z,3.69
2023-02-11T18:48:17.700Z,3.69
2023-02-11T18:50:50.114Z,3.57
2023-02-11T18:53:23.720Z,3.64
2023-02-11T18:55:56.134Z,3.65
2023-02-11T18:58:28.087Z,3.63
2023-02-11T19:01:00.575Z,3.57
2023-02-11T19:03:32.492Z,3.54
2023-02-11T19:06:05.361Z,3.56
2023-02-11T19:08:37.289Z,3.45
2023-02-11T19:11:10.146Z,3.51
2023-02-11T19:13:42.133Z,3.61
2023-02-11T19:16:17.007Z,3.48
2023-02-11T19:18:49.068Z,3.43
2023-02-11T19:21:21.578Z,3.45
2023-02-11T19:23:53.514Z,3.51
2023-02-11T19:26:26.825Z,3.38
2023-02-11T19:28:59.131Z,3.33
2023-02-11T19:31:33.945Z,3.42
2023-02-11T19:34:07.562Z,3.34
2023-02-11T19:36:40.728Z,3.31
2023-02-11T19:39:13.117Z,3.67
2023-02-11T19:41:45.708Z,3.39
2023-02-11T19:44:18.388Z,2.99
2023-02-11T19:46:53.008Z,2.66
2023-02-11T19:49:26.326Z,2.60
2023-02-11T19:51:59.068Z,2.40
2023-02-11T19:54:31.123Z,2.30
2023-02-11T19:57:03.545Z,2.25
2023-02-11T19:59:35.420Z,2.25
2023-02-11T20:02:08.341Z,2.25
2023-02-11T20:04:40.291Z,2.28
2023-02-11T20:07:12.804Z,2.16
2023-02-11T20:09:44.811Z,2.02
2023-02-11T20:12:17.949Z,1.99
2023-02-11T20:14:49.894Z,1.99
2023-02-11T20:17:22.410Z,1.93
2023-02-11T20:19:54.325Z,2.02
2023-02-11T20:22:26.768Z,2.13
2023-02-11T20:24:58.691Z,2.22
2023-02-11T20:27:32.393Z,2.16
2023-02-11T20:30:05.381Z,2.17
2023-02-11T20:32:38.856Z,2.20
2023-02-11T20:35:10.874Z,2.23
2023-02-11T20:37:44.296Z,2.27
2023-02-11T20:40:17.338Z,2.33
2023-02-11T20:42:49.958Z,2.33
2023-02-11T20:45:22.956Z,2.34
2023-02-11T20:47:55.420Z,2.38
2023-02-11T20:50:27.358Z,2.47
2023-02-11T20:52:59.819Z,2.43
2023-02-11T20:55:31.928Z,2.44
2023-02-11T20:58:05.786Z,2.48
2023-02-11T21:00:37.827Z,2.59
2023-02-11T21:03:10.640Z,2.59
2023-02-11T21:05:42.606Z,2.71
2023-02-11T21:08:14.989Z,2.71
2023-02-11T21:10:48.509Z,2.71
2023-02-11T21:13:20.975Z,2.72
2023-02-11T21:15:57.375Z,2.81
2023-02-11T21:18:30.166Z,2.84
2023-02-11T21:21:02.272Z,2.72
2023-02-11T21:23:35.977Z,2.60
2023-02-11T21:26:08.822Z,2.55
2023-02-11T21:28:41.503Z,2.53
2023-02-11T21:31:27.157Z,2.48
2023-02-11T21:33:59.856Z,2.46
2023-02-11T21:36:32.005Z,2.43
2023-02-11T21:39:05.872Z,2.47
2023-02-11T21:41:37.873Z,2.46
2023-02-11T21:44:10.098Z,2.49
2023-02-11T21:46:42.100Z,2.42
2023-02-11T21:49:14.625Z,2.24
2023-02-11T21:51:46.966Z,2.00
2023-02-11T21:54:20.343Z,1.78
2023-02-11T21:56:52.447Z,1.47
2023-02-11T21:59:24.823Z,1.37
2023-02-11T22:01:56.851Z,1.25
2023-02-11T22:04:29.290Z,1.20
2023-02-11T22:07:02.887Z,1.13
2023-02-11T22:09:35.252Z,1.09
2023-02-11T22:12:11.257Z,1.03
2023-02-11T22:14:43.892Z,0.95
2023-02-11T22:17:16.300Z,0.99
2023-02-11T22:19:49.058Z,1.03
2023-02-11T22:22:21.248Z,1.08
2023-02-11T22:24:54.336Z,1.15
2023-02-11T22:27:26.302Z,1.22
2023-02-11T22:29:58.728Z,1.25
2023-02-11T22:32:30.710Z,1.25
2023-02-11T22:35:03.187Z,1.26
2023-02-11T22:37:35.131Z,1.22
2023-02-11T22:40:08.483Z,1.16
2023-02-11T22:42:40.447Z,1.11
2023-02-11T22:45:13.971Z,1.05
2023-02-11T22:47:45.902Z,0.96
2023-02-11T22:50:19.836Z,0.88
2023-02-11T22:52:51.729Z,0.83
2023-02-11T22:55:24.085Z,0.70
2023-02-11T22:57:56.054Z,0.59
2023-02-11T23:00:32.204Z,0.51
2023-02-11T23:03:05.650Z,0.50
2023-02-11T23:05:42.705Z,0.57
2023-02-11T23:08:14.695Z,0.80
2023-02-11T23:10:47.266Z,1.04
2023-02-11T23:13:19.431Z,1.03
2023-02-11T23:15:51.801Z,0.92
2023-02-11T23:18:23.695Z,0.94
2023-02-11T23:20:56.453Z,0.79
2023-02-11T23:23:28.472Z,0.65
2023-02-11T23:26:01.433Z,0.46
2023-02-11T23:28:33.416Z,0.38
2023-02-11T23:31:38.114Z,0.31
2023-02-11T23:34:10.727Z,0.25
2023-02-11T23:36:44.480Z,0.26
2023-02-11T23:39:17.129Z,0.30
2023-02-11T23:41:52.720Z,0.34
2023-02-11T23:44:27.993Z,0.29
2023-02-11T23:47:00.358Z,0.25
2023-02-11T23:49:32.320Z,0.36
2023-02-11T23:52:04.708Z,0.37
2023-02-11T23:54:36.673Z,0.50
2023-02-11T23:57:09.058Z,0.61
2023-02-11T23:59:43.172Z,0.73
